Time;durP1;ratioP1;P1;durP2;ratioP2;P2;SDS_P1;SDS_P2;PMS_P1;PMS_P2;Temp;Humidity;BMP_temperature;BMP_pressure;BME280_temperature;BME280_humidity;BME280_pressure;Samples;Min_cycle;Max_cycle;Signal;HPM_P1;HPM_P2
2021/10/18 00:00:47;;;;;;;13.18;9.10;;;12.10;99.90;;;;;;5087373;28;20044;-44
2021/10/18 00:03:12;;;;;;;12.63;9.27;;;12.10;99.90;;;;;;5085796;28;20020;-43
2021/10/18 00:05:38;;;;;;;14.32;9.20;;;12.10;99.90;;;;;;5087150;28;20047;-43
2021/10/18 00:08:04;;;;;;;13.73;9.70;;;12.10;99.90;;;;;;5086471;28;20525;-43
2021/10/18 00:10:30;;;;;;;14.40;9.80;;;12.10;99.90;;;;;;5086615;28;20032;-42
2021/10/18 00:12:55;;;;;;;14.75;9.57;;;12.10;99.90;;;;;;5086378;28;20044;-43
2021/10/18 00:15:21;;;;;;;13.00;10.05;;;12.10;99.90;;;;;;5088665;28;20013;-44
2021/10/18 00:17:47;;;;;;;11.85;9.98;;;12.10;99.90;;;;;;5090521;28;20027;-42
2021/10/18 00:20:16;;;;;;;12.60;10.15;;;12.10;99.90;;;;;;5079266;28;20020;-43
2021/10/18 00:22:42;;;;;;;11.45;9.18;;;12.00;99.90;;;;;;5090367;28;20115;-43
2021/10/18 00:25:11;;;;;;;12.38;10.02;;;12.00;99.90;;;;;;5090650;28;20470;-44
2021/10/18 00:27:36;;;;;;;14.77;9.95;;;12.10;99.90;;;;;;5090929;28;20054;-43
2021/10/18 00:30:03;;;;;;;12.23;9.20;;;12.00;99.90;;;;;;5090031;28;20495;-42
2021/10/18 00:32:29;;;;;;;14.45;9.20;;;12.00;99.90;;;;;;5090752;28;20024;-42
2021/10/18 00:34:54;;;;;;;11.15;9.23;;;12.00;99.90;;;;;;5090292;28;20108;-43
2021/10/18 00:37:20;;;;;;;12.88;9.05;;;12.00;99.90;;;;;;5090084;28;20020;-44
2021/10/18 00:39:45;;;;;;;11.43;9.07;;;12.00;99.90;;;;;;5089863;28;20429;-42
2021/10/18 00:42:11;;;;;;;10.75;9.20;;;12.00;99.90;;;;;;5090586;28;20073;-44
2021/10/18 00:44:37;;;;;;;10.05;8.23;;;12.00;99.90;;;;;;5090233;28;20051;-43
2021/10/18 00:47:03;;;;;;;12.05;9.35;;;12.00;99.90;;;;;;5090332;28;20028;-42
2021/10/18 00:49:29;;;;;;;12.60;9.00;;;12.00;99.90;;;;;;5090013;28;20028;-42
2021/10/18 00:51:55;;;;;;;10.40;9.27;;;12.00;99.90;;;;;;5088886;28;20499;-42
2021/10/18 00:54:21;;;;;;;12.38;9.25;;;12.00;99.90;;;;;;5090310;28;20060;-44
2021/10/18 00:56:47;;;;;;;11.45;9.15;;;11.90;99.90;;;;;;5090468;28;20077;-43
2021/10/18 00:59:16;;;;;;;12.90;9.60;;;11.90;99.90;;;;;;5089208;28;20020;-44
2021/10/18 01:01:42;;;;;;;11.68;9.15;;;11.90;99.90;;;;;;5090321;28;20022;-42
2021/10/18 01:04:08;;;;;;;13.35;9.77;;;11.80;99.90;;;;;;5089414;28;20032;-43
2021/10/18 01:06:34;;;;;;;12.63;9.57;;;11.80;99.90;;;;;;5089853;28;20024;-44
2021/10/18 01:09:00;;;;;;;15.38;10.57;;;11.70;99.90;;;;;;5090193;28;20059;-42
2021/10/18 01:11:26;;;;;;;12.10;9.68;;;11.70;99.90;;;;;;5089850;28;20067;-42
2021/10/18 01:13:52;;;;;;;13.43;9.77;;;11.60;99.90;;;;;;5089133;28;20040;-42
2021/10/18 01:16:17;;;;;;;11.18;9.55;;;11.60;99.90;;;;;;5089504;28;20039;-43
2021/10/18 01:18:43;;;;;;;15.35;10.57;;;11.60;99.90;;;;;;5089979;28;20114;-43
2021/10/18 01:21:08;;;;;;;12.60;10.02;;;11.50;99.90;;;;;;5088756;28;20024;-41
2021/10/18 01:23:34;;;;;;;13.27;10.63;;;11.50;99.90;;;;;;5090167;28;20115;-41
2021/10/18 01:26:00;;;;;;;11.82;9.98;;;11.50;99.90;;;;;;5088721;28;20059;-43
2021/10/18 01:28:25;;;;;;;12.38;10.43;;;11.50;99.90;;;;;;5089041;28;20063;-43
2021/10/18 01:30:51;;;;;;;12.50;9.82;;;11.50;99.90;;;;;;5089148;28;20062;-43
2021/10/18 01:33:17;;;;;;;13.65;10.20;;;11.40;99.90;;;;;;5089379;28;20047;-42
2021/10/18 01:35:42;;;;;;;13.30;10.45;;;11.40;99.90;;;;;;5089371;28;20024;-42
2021/10/18 01:38:08;;;;;;;12.88;10.48;;;11.30;99.90;;;;;;5089142;28;20035;-44
2021/10/18 01:40:34;;;;;;;13.80;10.55;;;11.30;99.90;;;;;;5089344;28;20055;-43
2021/10/18 01:42:59;;;;;;;13.30;10.23;;;11.30;99.90;;;;;;5088894;28;20115;-44
2021/10/18 01:45:25;;;;;;;15.60;11.52;;;11.30;99.90;;;;;;5089115;28;20476;-43
2021/10/18 01:47:50;;;;;;;13.63;10.85;;;11.30;99.90;;;;;;5088628;28;20111;-43
2021/10/18 01:50:26;;;;;;;11.75;10.48;;;11.30;99.90;;;;;;5089238;28;20020;-43
2021/10/18 01:52:53;;;;;;;12.27;10.23;;;11.30;99.90;;;;;;5084735;28;20048;-43
2021/10/18 01:55:20;;;;;;;12.45;10.95;;;11.30;99.90;;;;;;5089139;28;20021;-41
2021/10/18 01:57:46;;;;;;;15.07;11.38;;;11.30;99.90;;;;;;5089119;28;20068;-42
2021/10/18 02:00:13;;;;;;;15.30;11.10;;;11.30;99.90;;;;;;5088778;28;20024;-43
2021/10/18 02:02:38;;;;;;;15.48;10.60;;;11.30;99.90;;;;;;5088218;28;20020;-42
2021/10/18 02:05:04;;;;;;;13.50;10.85;;;11.30;99.90;;;;;;5088646;28;20067;-44
2021/10/18 02:07:30;;;;;;;11.40;10.05;;;11.30;99.90;;;;;;5089017;28;20024;-42
2021/10/18 02:09:57;;;;;;;12.73;11.30;;;11.30;99.90;;;;;;5088376;28;20483;-42
2021/10/18 02:12:23;;;;;;;12.00;10.43;;;11.30;99.90;;;;;;5088437;28;20166;-43
2021/10/18 02:14:49;;;;;;;13.75;10.23;;;11.40;99.90;;;;;;5088658;28;20043;-43
2021/10/18 02:17:15;;;;;;;13.13;10.98;;;11.40;99.90;;;;;;5087498;28;20016;-43
2021/10/18 02:19:41;;;;;;;13.88;10.77;;;11.40;99.90;;;;;;5089157;28;20111;-44
2021/10/18 02:22:06;;;;;;;12.95;10.60;;;11.40;99.90;;;;;;5087184;28;20020;-43
2021/10/18 02:24:32;;;;;;;13.65;10.43;;;11.40;99.90;;;;;;5089109;28;20028;-43
2021/10/18 02:26:57;;;;;;;13.07;10.30;;;11.40;99.90;;;;;;5088014;28;20519;-43
2021/10/18 02:29:23;;;;;;;12.80;11.18;;;11.40;99.90;;;;;;5087617;28;20035;-43
2021/10/18 02:31:49;;;;;;;13.82;11.63;;;11.40;99.90;;;;;;5088208;28;20028;-43
2021/10/18 02:34:17;;;;;;;11.40;10.13;;;11.40;99.90;;;;;;5084291;28;20031;-43
2021/10/18 02:36:43;;;;;;;12.52;10.57;;;11.30;99.90;;;;;;5088395;28;20047;-44
2021/10/18 02:39:09;;;;;;;13.65;10.85;;;11.30;99.90;;;;;;5087658;28;20024;-43
2021/10/18 02:41:34;;;;;;;13.38;10.57;;;11.20;99.90;;;;;;5088368;28;20562;-42
2021/10/18 02:44:00;;;;;;;12.88;10.55;;;11.20;99.90;;;;;;5086981;28;20862;-44
2021/10/18 02:46:25;;;;;;;12.77;11.10;;;11.20;99.90;;;;;;5088210;28;20032;-42
2021/10/18 02:48:51;;;;;;;12.45;11.15;;;11.10;99.90;;;;;;5087802;28;20046;-43
2021/10/18 02:51:16;;;;;;;14.75;12.23;;;11.10;99.90;;;;;;5088127;28;20028;-43
2021/10/18 02:53:42;;;;;;;12.55;11.25;;;11.10;99.90;;;;;;5087653;28;20059;-42
2021/10/18 02:56:07;;;;;;;14.02;11.07;;;11.00;99.90;;;;;;5087574;28;20020;-43
2021/10/18 02:58:33;;;;;;;15.02;11.65;;;11.00;99.90;;;;;;5087263;28;20058;-43
2021/10/18 03:00:59;;;;;;;14.20;11.68;;;11.00;99.90;;;;;;5087749;28;20107;-42
2021/10/18 03:03:24;;;;;;;15.52;12.68;;;11.00;99.90;;;;;;5087799;28;20028;-41
2021/10/18 03:05:49;;;;;;;15.48;11.88;;;11.00;99.90;;;;;;5087152;28;20375;-43
2021/10/18 03:08:15;;;;;;;14.88;11.57;;;11.00;99.90;;;;;;5087555;28;20103;-43
2021/10/18 03:10:43;;;;;;;13.35;11.05;;;10.90;99.90;;;;;;5087662;28;20032;-43
2021/10/18 03:13:10;;;;;;;12.88;11.38;;;10.90;99.90;;;;;;5086711;28;20524;-43
2021/10/18 03:15:37;;;;;;;15.02;12.15;;;10.90;99.90;;;;;;5088071;28;20107;-42
2021/10/18 03:18:02;;;;;;;14.82;11.95;;;10.90;99.90;;;;;;5087374;28;20034;-43
2021/10/18 03:20:28;;;;;;;14.32;12.40;;;10.90;99.90;;;;;;5086855;28;20028;-41
2021/10/18 03:22:54;;;;;;;15.15;11.68;;;10.90;99.90;;;;;;5087634;28;20027;-42
2021/10/18 03:25:20;;;;;;;16.58;12.85;;;10.80;99.90;;;;;;5087149;28;20410;-43
2021/10/18 03:27:46;;;;;;;18.40;12.77;;;10.80;99.90;;;;;;5087328;28;20205;-42
2021/10/18 03:30:12;;;;;;;15.60;13.02;;;10.80;99.90;;;;;;5086363;28;20107;-43
2021/10/18 03:32:37;;;;;;;17.02;13.70;;;10.80;99.90;;;;;;5087197;28;20546;-44
2021/10/18 03:35:04;;;;;;;18.83;14.13;;;10.80;99.90;;;;;;5087221;28;20035;-43
2021/10/18 03:37:30;;;;;;;19.42;14.88;;;10.80;99.90;;;;;;5087687;28;20032;-42
2021/10/18 03:39:55;;;;;;;15.70;13.65;;;10.70;99.90;;;;;;5086472;28;20386;-42
2021/10/18 03:42:21;;;;;;;17.42;14.50;;;10.70;99.90;;;;;;5086806;28;20048;-43
2021/10/18 03:44:47;;;;;;;16.88;13.52;;;10.60;99.90;;;;;;5087294;28;20031;-42
2021/10/18 03:47:12;;;;;;;20.45;14.25;;;10.60;99.90;;;;;;5086226;28;20045;-43
2021/10/18 03:49:38;;;;;;;15.98;14.20;;;10.60;99.90;;;;;;5087165;28;20051;-42
2021/10/18 03:52:04;;;;;;;16.60;13.88;;;10.50;99.90;;;;;;5086705;28;20047;-43
2021/10/18 03:54:29;;;;;;;15.73;13.38;;;10.50;99.90;;;;;;5086514;28;20036;-42
2021/10/18 03:56:55;;;;;;;16.90;13.98;;;10.50;99.90;;;;;;5087000;28;20031;-43
2021/10/18 03:59:21;;;;;;;16.45;13.55;;;10.40;99.90;;;;;;5087028;28;20031;-44
2021/10/18 04:01:48;;;;;;;17.33;13.82;;;10.40;99.90;;;;;;5086694;28;20020;-44
2021/10/18 04:04:13;;;;;;;17.98;13.93;;;10.30;99.90;;;;;;5087056;28;20681;-43
2021/10/18 04:06:39;;;;;;;15.95;13.50;;;10.30;99.90;;;;;;5086626;28;20074;-44
2021/10/18 04:09:04;;;;;;;15.63;13.07;;;10.20;99.90;;;;;;5086221;28;20028;-42
2021/10/18 04:11:37;;;;;;;16.20;13.32;;;10.20;99.90;;;;;;5086917;28;20124;-43
2021/10/18 04:14:02;;;;;;;17.90;13.63;;;10.20;99.90;;;;;;5086438;28;20441;-43
2021/10/18 04:16:28;;;;;;;16.58;13.32;;;10.10;99.90;;;;;;5086629;28;20020;-42
2021/10/18 04:18:53;;;;;;;15.77;13.57;;;10.00;99.90;;;;;;5086308;28;20376;-43
2021/10/18 04:21:19;;;;;;;17.15;13.27;;;10.00;99.90;;;;;;5086616;28;20259;-42
2021/10/18 04:23:44;;;;;;;17.77;13.45;;;10.00;99.90;;;;;;5086788;28;20024;-43
2021/10/18 04:26:10;;;;;;;18.35;13.65;;;10.00;99.90;;;;;;5085909;28;20065;-42
2021/10/18 04:28:35;;;;;;;23.10;20.38;;;9.90;99.90;;;;;;5087153;28;20013;-42
2021/10/18 04:31:01;;;;;;;25.33;21.65;;;9.90;99.90;;;;;;5085586;28;20024;-44
2021/10/18 04:33:26;;;;;;;24.77;20.92;;;9.90;99.90;;;;;;5087059;28;20032;-42
2021/10/18 04:35:52;;;;;;;20.50;17.92;;;9.80;99.90;;;;;;5086080;28;20464;-43
2021/10/18 04:38:17;;;;;;;21.10;16.48;;;9.80;99.90;;;;;;5086495;28;20024;-42
2021/10/18 04:40:43;;;;;;;18.38;15.07;;;9.80;99.90;;;;;;5087058;28;20533;-43
2021/10/18 04:43:08;;;;;;;16.55;14.32;;;9.80;99.90;;;;;;5085289;28;20051;-42
2021/10/18 04:45:34;;;;;;;19.38;15.43;;;9.70;99.90;;;;;;5087108;28;20028;-43
2021/10/18 04:47:59;;;;;;;17.90;15.05;;;9.70;99.90;;;;;;5086415;28;20023;-44
2021/10/18 04:50:25;;;;;;;17.80;15.13;;;9.70;99.90;;;;;;5086028;28;20030;-42
2021/10/18 04:52:51;;;;;;;17.48;15.55;;;9.60;99.90;;;;;;5086083;28;20547;-43
2021/10/18 04:55:16;;;;;;;17.80;15.52;;;9.60;99.90;;;;;;5086492;28;20082;-42
2021/10/18 04:57:57;;;;;;;21.38;16.63;;;9.60;99.90;;;;;;5085856;28;20035;-43
2021/10/18 05:00:24;;;;;;;23.27;17.70;;;9.60;99.90;;;;;;5086330;28;20046;-43
2021/10/18 05:02:53;;;;;;;21.70;17.65;;;9.60;99.90;;;;;;5088915;28;20602;-43
2021/10/18 05:05:20;;;;;;;22.25;18.13;;;9.50;99.90;;;;;;5089720;28;20020;-43
2021/10/18 05:07:45;;;;;;;24.02;17.90;;;9.60;99.90;;;;;;5089605;28;20036;-41
2021/10/18 05:10:17;;;;;;;20.70;17.20;;;9.50;99.90;;;;;;5089405;28;20111;-43
2021/10/18 05:12:42;;;;;;;22.63;17.23;;;9.50;99.90;;;;;;5089764;28;20044;-42
2021/10/18 05:15:08;;;;;;;21.63;16.55;;;9.50;99.90;;;;;;5089427;28;20028;-42
2021/10/18 05:17:35;;;;;;;19.75;16.65;;;9.50;99.90;;;;;;5090379;28;20024;-42
2021/10/18 05:20:01;;;;;;;19.55;15.63;;;9.50;99.90;;;;;;5088555;28;20421;-44
2021/10/18 05:22:26;;;;;;;19.65;16.23;;;9.40;99.90;;;;;;5089587;28;20264;-44
2021/10/18 05:24:52;;;;;;;19.55;15.50;;;9.40;99.90;;;;;;5090047;28;20086;-43
2021/10/18 05:27:23;;;;;;;17.75;15.10;;;9.40;99.90;;;;;;5089223;28;20024;-43
2021/10/18 05:29:49;;;;;;;18.50;15.10;;;9.40;99.90;;;;;;5090123;28;20032;-43
2021/10/18 05:32:14;;;;;;;19.60;14.82;;;9.40;99.90;;;;;;5088342;28;20024;-43
2021/10/18 05:34:40;;;;;;;17.92;15.15;;;9.40;99.90;;;;;;5089470;28;20475;-43
2021/10/18 05:37:05;;;;;;;18.42;14.40;;;9.40;99.90;;;;;;5068988;28;20668;-43
2021/10/18 05:39:31;;;;;;;19.23;15.07;;;9.40;99.90;;;;;;5082966;28;20101;-45
2021/10/18 05:41:56;;;;;;;17.90;14.85;;;9.40;99.90;;;;;;5089636;28;20020;-43
2021/10/18 05:44:22;;;;;;;19.00;15.30;;;9.40;99.90;;;;;;5088882;28;20123;-43
2021/10/18 05:46:47;;;;;;;21.50;15.05;;;9.50;99.90;;;;;;5089025;28;20032;-43
2021/10/18 05:49:13;;;;;;;18.88;14.85;;;9.40;99.90;;;;;;5088449;28;20028;-43
2021/10/18 05:51:39;;;;;;;20.20;15.55;;;9.50;99.90;;;;;;5089564;28;20062;-42
2021/10/18 05:54:05;;;;;;;23.00;16.60;;;9.50;99.90;;;;;;5088232;28;20449;-43
2021/10/18 05:56:31;;;;;;;24.02;16.90;;;9.50;99.90;;;;;;5089384;28;20383;-42
2021/10/18 05:58:56;;;;;;;22.58;15.95;;;9.50;99.90;;;;;;5089169;28;20487;-42
2021/10/18 06:01:22;;;;;;;23.05;16.45;;;9.50;99.90;;;;;;5088090;28;20032;-42
2021/10/18 06:03:48;;;;;;;21.30;16.25;;;9.50;99.90;;;;;;5089091;28;20399;-43
2021/10/18 06:06:15;;;;;;;20.67;15.52;;;9.50;99.90;;;;;;5088515;28;20479;-43
2021/10/18 06:08:41;;;;;;;20.98;15.80;;;9.60;99.90;;;;;;5088754;28;20472;-44
2021/10/18 06:11:10;;;;;;;23.27;16.85;;;9.60;99.90;;;;;;5088247;28;20526;-43
2021/10/18 06:13:35;;;;;;;24.27;16.63;;;9.60;99.90;;;;;;5089126;28;20042;-43
2021/10/18 06:16:01;;;;;;;20.77;16.27;;;9.60;99.90;;;;;;5088029;28;20020;-44
2021/10/18 06:18:26;;;;;;;24.45;16.65;;;9.60;99.90;;;;;;5088744;28;20513;-42
2021/10/18 06:20:55;;;;;;;19.95;15.32;;;9.60;99.90;;;;;;5088242;28;20383;-44
2021/10/18 06:23:23;;;;;;;18.88;15.57;;;9.60;99.90;;;;;;5088115;28;20030;-43
2021/10/18 06:25:48;;;;;;;19.90;15.65;;;9.60;99.90;;;;;;5088933;28;20035;-43
2021/10/18 06:28:14;;;;;;;21.33;15.13;;;9.60;99.90;;;;;;5088060;28;20024;-41
2021/10/18 06:30:40;;;;;;;18.63;14.85;;;9.60;99.90;;;;;;5088317;28;20016;-44
2021/10/18 06:33:06;;;;;;;18.33;14.68;;;9.60;99.90;;;;;;5087879;28;20415;-44
2021/10/18 06:35:35;;;;;;;20.45;15.38;;;9.60;99.90;;;;;;5088058;28;20466;-44
2021/10/18 06:38:08;;;;;;;18.27;14.98;;;9.60;99.90;;;;;;5088364;28;20023;-43
2021/10/18 06:40:33;;;;;;;16.67;14.50;;;9.60;99.90;;;;;;5089020;28;20035;-42
2021/10/18 06:42:59;;;;;;;19.52;14.93;;;9.70;99.90;;;;;;5076260;28;20012;-43
2021/10/18 06:45:25;;;;;;;20.67;14.82;;;9.70;99.90;;;;;;5087614;28;20028;-43
2021/10/18 06:47:51;;;;;;;22.90;15.05;;;9.70;99.90;;;;;;5088230;28;20368;-43
2021/10/18 06:50:17;;;;;;;17.70;14.23;;;9.70;99.90;;;;;;5087274;28;20114;-42
2021/10/18 06:52:43;;;;;;;18.17;13.43;;;9.80;99.90;;;;;;5088022;28;20047;-43
2021/10/18 06:55:11;;;;;;;20.20;14.57;;;9.70;99.90;;;;;;5087765;28;20036;-43
2021/10/18 06:57:37;;;;;;;18.98;14.13;;;9.70;99.90;;;;;;5087263;28;20031;-42
2021/10/18 07:00:05;;;;;;;19.38;14.85;;;9.80;99.90;;;;;;5087767;28;20032;-42
2021/10/18 07:02:31;;;;;;;18.38;13.93;;;9.80;99.90;;;;;;5088044;28;20023;-43
2021/10/18 07:04:56;;;;;;;17.08;14.45;;;9.80;99.90;;;;;;5087420;28;20032;-43
2021/10/18 07:07:22;;;;;;;19.15;13.75;;;9.80;99.90;;;;;;5087550;28;20024;-42
2021/10/18 07:09:47;;;;;;;16.85;14.45;;;9.80;99.90;;;;;;5088156;28;20509;-42
2021/10/18 07:12:13;;;;;;;19.50;14.35;;;9.90;99.90;;;;;;5086463;28;20111;-43
2021/10/18 07:14:39;;;;;;;18.52;13.40;;;9.90;99.90;;;;;;5087750;28;20119;-42
2021/10/18 07:17:10;;;;;;;18.27;14.50;;;9.90;99.90;;;;;;5087030;28;20395;-43
2021/10/18 07:19:36;;;;;;;23.77;14.25;;;9.90;99.90;;;;;;5087771;28;20120;-43
2021/10/18 07:22:01;;;;;;;19.23;14.00;;;10.00;99.90;;;;;;5087058;28;20103;-44
2021/10/18 07:24:27;;;;;;;19.13;14.90;;;10.00;99.90;;;;;;5086767;28;20069;-42
2021/10/18 07:26:52;;;;;;;17.45;14.68;;;10.00;99.90;;;;;;5087137;28;20028;-43
2021/10/18 07:29:20;;;;;;;19.75;13.55;;;10.00;99.90;;;;;;5087136;28;20012;-42
2021/10/18 07:31:46;;;;;;;18.15;14.68;;;10.10;99.90;;;;;;5087358;28;20499;-43
2021/10/18 07:34:14;;;;;;;18.63;14.85;;;10.10;99.90;;;;;;5086655;28;20244;-42
2021/10/18 07:36:48;;;;;;;18.02;13.27;;;10.10;99.90;;;;;;5087902;28;20020;-42
2021/10/18 07:39:21;;;;;;;17.88;14.43;;;10.20;99.90;;;;;;5086033;28;20024;-42
2021/10/18 07:41:48;;;;;;;17.75;12.93;;;10.20;99.90;;;;;;5087889;28;20593;-42
2021/10/18 07:44:14;;;;;;;18.83;13.90;;;10.20;99.90;;;;;;5086920;28;20044;-43
2021/10/18 07:46:40;;;;;;;18.98;14.55;;;10.30;99.90;;;;;;5087083;28;20024;-42
2021/10/18 07:49:06;;;;;;;21.15;15.07;;;10.30;99.90;;;;;;5086760;28;20111;-42
2021/10/18 07:51:32;;;;;;;18.92;14.25;;;10.40;99.90;;;;;;5086339;28;20044;-43
2021/10/18 07:53:58;;;;;;;18.35;14.68;;;10.40;99.90;;;;;;5086533;28;20481;-43
2021/10/18 07:56:25;;;;;;;15.82;13.55;;;10.50;99.90;;;;;;5086903;28;20055;-42
2021/10/18 07:58:51;;;;;;;16.67;13.23;;;10.50;99.90;;;;;;5086557;28;20028;-43
2021/10/18 08:01:16;;;;;;;18.15;13.80;;;10.50;99.90;;;;;;5086516;28;20024;-43
2021/10/18 08:03:41;;;;;;;17.48;13.60;;;10.60;99.90;;;;;;5087341;28;20035;-42
2021/10/18 08:06:07;;;;;;;17.02;13.27;;;10.60;99.90;;;;;;5086370;28;20475;-42
2021/10/18 08:08:42;;;;;;;15.50;12.65;;;10.70;99.90;;;;;;5086733;28;20055;-43
2021/10/18 08:11:11;;;;;;;16.45;13.25;;;10.80;99.90;;;;;;5086293;28;20054;-43
2021/10/18 08:13:37;;;;;;;18.50;12.70;;;10.80;99.90;;;;;;5086951;28;20058;-42
2021/10/18 08:16:03;;;;;;;15.48;12.65;;;10.90;99.90;;;;;;5086573;28;20028;-44
2021/10/18 08:18:29;;;;;;;16.45;13.57;;;11.00;99.90;;;;;;5086870;28;20031;-43
2021/10/18 08:20:54;;;;;;;13.50;11.00;;;11.00;99.90;;;;;;5086522;28;20063;-43
2021/10/18 08:23:20;;;;;;;16.58;12.77;;;11.10;99.90;;;;;;5086743;28;20032;-43
2021/10/18 08:25:45;;;;;;;19.20;13.95;;;11.10;99.90;;;;;;5086906;28;20056;-43
2021/10/18 08:28:12;;;;;;;15.95;12.35;;;11.10;99.90;;;;;;5085660;28;20024;-43
2021/10/18 08:30:39;;;;;;;17.95;12.93;;;11.20;99.90;;;;;;5087158;28;20028;-43
2021/10/18 08:33:04;;;;;;;17.70;13.13;;;11.20;99.90;;;;;;5087124;28;20024;-43
2021/10/18 08:35:30;;;;;;;15.50;12.32;;;11.20;99.90;;;;;;5086244;28;20030;-43
2021/10/18 08:40:45;;;;;;;16.65;13.50;;;11.30;99.90;;;;;;5090907;28;20383;-43
2021/10/18 08:45:42;;;;;;;16.13;12.50;;;11.40;99.90;;;;;;5090848;28;20028;-42
2021/10/18 08:48:09;;;;;;;20.30;13.85;;;11.40;99.90;;;;;;5090132;28;20082;-42
2021/10/18 08:50:35;;;;;;;19.38;14.15;;;11.50;99.90;;;;;;5090105;28;20032;-42
2021/10/18 08:53:00;;;;;;;19.25;14.38;;;11.50;99.90;;;;;;5090022;28;20609;-40
2021/10/18 08:55:26;;;;;;;15.70;12.73;;;11.60;99.90;;;;;;5090040;28;20024;-42
2021/10/18 08:57:51;;;;;;;17.42;13.18;;;11.60;99.90;;;;;;5089660;28;20031;-44
2021/10/18 09:00:39;;;;;;;16.17;11.85;;;11.70;99.90;;;;;;5089611;28;20077;-43
2021/10/18 09:03:20;;;;;;;15.00;11.85;;;11.80;99.90;;;;;;5089478;28;20576;-43
2021/10/18 09:05:46;;;;;;;16.90;12.50;;;11.80;99.90;;;;;;5090573;28;20115;-43
2021/10/18 09:08:35;;;;;;;14.05;11.82;;;11.90;99.90;;;;;;5089567;28;20352;-42
2021/10/18 09:11:13;;;;;;;14.80;10.80;;;12.00;99.90;;;;;;5078788;28;20107;-43
2021/10/18 09:13:55;;;;;;;14.48;11.23;;;12.00;99.90;;;;;;5090514;28;20073;-43
2021/10/18 09:16:42;;;;;;;14.15;11.82;;;12.10;99.90;;;;;;5089839;28;20017;-43
2021/10/18 09:19:11;;;;;;;16.75;12.93;;;12.20;99.90;;;;;;5088841;28;20107;-43
2021/10/18 09:21:46;;;;;;;16.30;14.07;;;12.30;99.90;;;;;;5090204;28;20035;-42
2021/10/18 09:24:15;;;;;;;13.88;11.60;;;12.30;99.90;;;;;;5088369;28;20032;-43
2021/10/18 09:26:41;;;;;;;14.02;12.05;;;12.40;99.90;;;;;;5090150;28;20072;-42
2021/10/18 09:29:16;;;;;;;16.02;12.43;;;12.50;99.90;;;;;;5089791;28;20042;-43
2021/10/18 09:31:57;;;;;;;13.95;11.88;;;12.60;99.90;;;;;;5089459;28;20490;-43
2021/10/18 09:34:30;;;;;;;13.85;10.77;;;12.60;99.90;;;;;;5089274;28;20040;-43
2021/10/18 09:37:15;;;;;;;13.38;11.85;;;12.70;99.90;;;;;;5089403;28;20016;-42
2021/10/18 09:39:45;;;;;;;14.93;11.68;;;12.80;99.90;;;;;;5089827;28;20024;-41
2021/10/18 09:42:14;;;;;;;15.05;10.95;;;12.80;99.90;;;;;;5088842;28;20031;-43
2021/10/18 10:56:39;;;;;;;15.10;11.48;;;14.10;99.90;;;;;;5084045;28;20032;-43
2021/10/18 10:59:06;;;;;;;15.70;11.85;;;14.10;99.90;;;;;;5087246;28;20031;-43
2021/10/18 11:02:00;;;;;;;15.23;11.90;;;14.10;99.90;;;;;;5087437;28;20020;-42
2021/10/18 11:04:35;;;;;;;;;;;14.20;99.90;;;;;;5087270;28;20016;-43
2021/10/18 11:07:03;;;;;;;10.93;8.77;;;14.20;99.90;;;;;;5088194;28;19904;-45
2021/10/18 11:09:45;;;;;;;12.32;9.77;;;14.30;99.90;;;;;;5087306;28;20463;-43
2021/10/18 11:12:37;;;;;;;12.55;10.35;;;14.30;99.90;;;;;;5077696;28;20024;-44
2021/10/18 11:15:09;;;;;;;14.43;11.50;;;14.40;99.90;;;;;;5087483;28;20028;-43
2021/10/18 11:17:52;;;;;;;14.57;11.53;;;14.40;99.90;;;;;;5087065;28;20039;-43
2021/10/18 11:20:21;;;;;;;13.10;10.57;;;14.40;99.90;;;;;;5083046;28;20305;-43
2021/10/18 11:22:49;;;;;;;14.55;11.75;;;14.50;99.90;;;;;;5084962;28;20024;-43
2021/10/18 11:25:17;;;;;;;14.90;11.57;;;14.50;99.90;;;;;;5086001;28;20020;-43
2021/10/18 11:27:50;;;;;;;13.70;10.98;;;14.60;99.90;;;;;;5087644;28;20739;-43
2021/10/18 11:30:18;;;;;;;13.18;11.60;;;14.60;99.90;;;;;;5087057;28;20020;-43
2021/10/18 11:32:54;;;;;;;12.20;10.43;;;14.70;99.90;;;;;;5086594;28;20028;-43
2021/10/18 11:35:20;;;;;;;12.30;10.98;;;14.80;99.90;;;;;;5087227;28;20085;-43
2021/10/18 11:38:07;;;;;;;13.55;11.15;;;14.90;99.90;;;;;;5086823;28;20035;-43
2021/10/18 11:40:37;;;;;;;13.15;10.10;;;15.00;99.90;;;;;;5073454;28;20040;-43
2021/10/18 11:43:07;;;;;;;12.90;10.80;;;15.10;99.90;;;;;;5082524;28;20035;-44
2021/10/18 11:45:39;;;;;;;13.68;12.02;;;15.10;99.90;;;;;;5085782;28;20024;-43
2021/10/18 11:48:13;;;;;;;13.13;11.80;;;15.20;99.90;;;;;;5084660;28;20581;-43
2021/10/18 11:50:40;;;;;;;12.20;10.10;;;15.20;99.90;;;;;;5087271;28;20032;-44
2021/10/18 11:53:16;;;;;;;15.10;11.70;;;15.20;99.90;;;;;;5085846;28;20212;-43
2021/10/18 11:55:46;;;;;;;12.77;11.38;;;15.20;99.90;;;;;;5087115;28;20099;-43
2021/10/18 11:58:19;;;;;;;15.45;11.88;;;15.20;99.90;;;;;;5085934;28;20467;-43
2021/10/18 12:00:46;;;;;;;11.70;9.93;;;15.30;99.90;;;;;;5067636;28;20448;-42
2021/10/18 12:03:19;;;;;;;14.38;11.75;;;15.30;99.90;;;;;;5084732;28;20446;-44
2021/10/18 12:05:52;;;;;;;14.52;11.65;;;15.30;99.90;;;;;;5087456;28;20031;-43
2021/10/18 12:08:26;;;;;;;12.18;10.05;;;15.40;99.90;;;;;;5085330;28;20921;-43
2021/10/18 12:10:51;;;;;;;16.63;12.27;;;15.40;99.90;;;;;;5087192;28;20067;-43
2021/10/18 12:13:29;;;;;;;14.88;12.05;;;15.50;99.90;;;;;;5089340;28;20597;-44
2021/10/18 12:16:03;;;;;;;13.32;10.98;;;15.50;99.90;;;;;;5088831;28;20020;-43
2021/10/18 12:18:50;;;;;;;16.15;12.75;;;15.50;99.90;;;;;;5089642;28;20112;-43
2021/10/18 12:21:28;;;;;;;14.07;11.20;;;15.50;99.90;;;;;;5088613;28;20043;-43
2021/10/18 12:23:59;;;;;;;11.63;9.55;;;15.50;99.90;;;;;;5089826;28;20028;-43
2021/10/18 12:26:27;;;;;;;12.68;10.02;;;15.60;99.90;;;;;;5090660;28;20242;-43
2021/10/18 12:29:15;;;;;;;11.82;9.90;;;15.60;99.90;;;;;;5089706;28;20468;-43
2021/10/18 12:31:41;;;;;;;14.70;10.95;;;15.60;99.90;;;;;;5090615;28;20020;-43
2021/10/18 12:34:22;;;;;;;12.27;10.07;;;15.60;99.90;;;;;;5089253;28;20044;-43
2021/10/18 12:37:02;;;;;;;10.98;9.38;;;15.60;99.90;;;;;;5090918;28;20028;-42
2021/10/18 12:39:39;;;;;;;12.20;10.30;;;15.60;99.90;;;;;;5088217;28;20035;-42
2021/10/18 12:42:09;;;;;;;9.93;8.90;;;15.60;99.90;;;;;;5083323;28;20028;-43
2021/10/18 12:44:37;;;;;;;12.48;10.00;;;15.60;99.90;;;;;;5089416;28;20023;-44
2021/10/18 12:47:17;;;;;;;13.07;9.93;;;15.70;99.90;;;;;;5090023;28;20105;-43
2021/10/18 12:49:51;;;;;;;10.65;8.43;;;15.70;99.90;;;;;;5088698;28;20035;-43
2021/10/18 12:52:32;;;;;;;10.75;8.85;;;15.70;99.90;;;;;;5087207;28;20505;-43
2021/10/18 12:54:59;;;;;;;12.75;9.85;;;15.70;99.90;;;;;;5088929;28;20044;-44
2021/10/18 12:57:31;;;;;;;9.90;8.18;;;15.70;99.90;;;;;;5089552;28;20031;-43
2021/10/18 13:00:05;;;;;;;11.30;9.00;;;15.80;99.90;;;;;;5089921;28;20032;-43
2021/10/18 13:02:34;;;;;;;9.63;8.48;;;15.70;99.90;;;;;;5089222;28;20036;-44
2021/10/18 13:05:12;;;;;;;10.00;8.75;;;15.80;99.90;;;;;;5089652;28;20024;-44
2021/10/18 13:07:42;;;;;;;10.52;8.75;;;15.90;99.90;;;;;;5089847;28;20025;-42
2021/10/18 13:10:10;;;;;;;10.55;9.05;;;15.80;99.90;;;;;;5088883;28;20135;-44
2021/10/18 13:12:36;;;;;;;9.98;8.32;;;15.90;99.90;;;;;;5089734;28;20043;-42
2021/10/18 13:15:02;;;;;;;10.32;9.20;;;15.90;99.90;;;;;;5089244;28;20428;-43
2021/10/18 13:17:28;;;;;;;10.82;9.07;;;15.90;99.90;;;;;;5089191;28;20020;-43
2021/10/18 13:19:54;;;;;;;11.00;8.82;;;15.90;99.90;;;;;;5088914;28;20383;-43
2021/10/18 13:22:21;;;;;;;12.40;9.65;;;15.90;99.90;;;;;;5088466;28;20020;-44
2021/10/18 13:24:47;;;;;;;11.05;9.85;;;15.90;99.90;;;;;;5088645;28;20483;-42
2021/10/18 13:27:13;;;;;;;11.10;8.73;;;15.90;99.90;;;;;;5088827;28;20647;-44
2021/10/18 13:29:38;;;;;;;11.52;9.15;;;16.00;99.90;;;;;;5088604;28;20032;-43
2021/10/18 13:32:05;;;;;;;8.68;7.30;;;16.00;99.90;;;;;;5088719;28;20027;-43
2021/10/18 13:34:37;;;;;;;10.48;8.60;;;16.10;99.90;;;;;;5089010;28;20112;-43
2021/10/18 13:37:03;;;;;;;;;;;16.10;99.90;;;;;;5089656;28;20418;-42
2021/10/18 13:39:29;;;;;;;8.82;6.90;;;16.10;99.90;;;;;;5088284;28;19908;-43
2021/10/18 13:41:58;;;;;;;8.00;7.20;;;16.20;99.90;;;;;;5088955;28;20017;-43
2021/10/18 13:44:24;;;;;;;11.35;9.40;;;16.20;99.90;;;;;;5088014;28;20038;-43
2021/10/18 13:46:49;;;;;;;12.20;9.00;;;16.20;99.90;;;;;;5088702;28;20119;-43
2021/10/18 13:49:15;;;;;;;13.07;9.65;;;16.30;99.90;;;;;;5088681;28;20020;-42
2021/10/18 13:51:40;;;;;;;11.77;9.55;;;16.20;99.90;;;;;;5087239;28;20871;-43
2021/10/18 13:54:07;;;;;;;11.00;9.32;;;16.20;99.90;;;;;;5088308;28;20359;-43